Planet Ace — 3EYF9 — position and weather

sailwx.info

Track history (hours):
 
Tides and Currents Weather Stations Pressure Air Temp Water Temp Dewpoint Dewpoint Depression Visibility Wind Speed Wind Dir Waves Ship Positions

Planet Ace

Last reported at 2017-Apr-30 14:28 UTC. Time now 2017-Apr-30 14:55 UTC.
Position N 35°54' W 005°59'.

Length 188 m; beam 28.2 m.

Type: Cargo ship. MMSI: 352168000.

Date/timePositionNaut miles runAvg speedWind from/ knotsBaromVisibWave heightAir tempDewpointWater temp
2017-Apr-30 14:28N 35°54' W 005°59'23812.7
2017-Apr-29 19:43N 38°16' W 009°59'314.3
2017-Apr-29 19:30N 38°19' W 009°60'714.4
2017-Apr-29 19:00N 38°26' W 010°02'714.3
2017-Apr-29 18:30N 38°33' W 010°05'714.5
2017-Apr-29 18:00N 38°40' W 010°07'714.5
2017-Apr-29 17:30N 38°47' W 010°07'714.7
2017-Apr-29 17:00N 38°55' W 010°08'714.7
2017-Apr-29 16:30N 39°02' W 010°08'714.8
2017-Apr-29 16:01N 39°09' W 010°07'714.7
2017-Apr-29 15:30N 39°17' W 010°07'815.2
2017-Apr-29 15:00N 39°24' W 010°07'66114.2
2017-Apr-27 16:35N 49°39' W 004°25'113.0
2017-Apr-27 16:30N 49°40' W 004°24'713.2
2017-Apr-27 16:00N 49°44' W 004°17'713.8
2017-Apr-27 15:30N 49°49' W 004°09'714.4
2017-Apr-27 15:00N 49°54' W 004°01'1515.5
2017-Apr-27 14:00N 50°05' W 003°44'816.7
2017-Apr-27 13:30N 50°11' W 003°35'815.8
2017-Apr-27 13:00N 50°17' W 003°27'714.0
2017-Apr-27 12:31N 50°24' W 003°26'5 9.4
2017-Apr-27 12:00N 50°25' W 003°19'714.9
2017-Apr-27 11:30N 50°26' W 003°08'714.6
2017-Apr-27 11:01N 50°26' W 002°56'714.1
2017-Apr-27 10:31N 50°25' W 002°45'713.3
2017-Apr-27 10:00N 50°25' W 002°35'612.2
2017-Apr-27 09:30N 50°25' W 002°25'1911.1
2017-Apr-27 07:47N 50°25' W 001°55'311.1
2017-Apr-27 07:29N 50°25' W 001°50'811.4
2017-Apr-27 06:46N 50°25' W 001°37'412.0
2017-Apr-27 06:28N 50°25' W 001°31'612.6
2017-Apr-27 06:00N 50°25' W 001°22'713.6
2017-Apr-27 05:30N 50°25' W 001°12'814.9
2017-Apr-27 04:58N 50°25' W 000°59'816.4
2017-Apr-27 04:30N 50°26' W 000°47'817.0
2017-Apr-27 04:00N 50°28' W 000°34'816.9
2017-Apr-27 03:30N 50°30' W 000°21'816.6
2017-Apr-27 03:00N 50°31' W 000°08'816.5
2017-Apr-27 02:30N 50°33' E 000°04'816.3
2017-Apr-27 02:00N 50°36' E 000°16'816.0
2017-Apr-27 01:30N 50°38' E 000°29'815.4
2017-Apr-27 01:00N 50°40' E 000°40'714.7
2017-Apr-27 00:30N 50°45' E 000°50'714.0
2017-Apr-27 00:00N 50°49' E 000°59'713.5
2017-Apr-26 23:30N 50°53' E 001°07'713.1
2017-Apr-26 23:00N 50°57' E 001°15'612.6
2017-Apr-26 22:31N 51°01' E 001°22'714.6
2017-Apr-26 22:00N 51°05' E 001°32'815.7
2017-Apr-26 21:30N 51°10' E 001°42'816.9
2017-Apr-26 21:01N 51°16' E 001°51'917.6
2017-Apr-26 20:31N 51°24' E 001°58'714.5
2017-Apr-26 20:00N 51°24' E 002°10'713.4
2017-Apr-26 19:31N 51°21' E 002°20'816.7
2017-Apr-26 19:01N 51°23' E 002°33'815.2
2017-Apr-26 18:30N 51°22' E 002°45'713.3
2017-Apr-26 18:00N 51°23' E 002°55'714.2
2017-Apr-26 17:30N 51°24' E 003°07'510.5
2017-Apr-26 17:00N 51°20' E 003°13'0 0.7
2017-Apr-26 16:30N 51°20' E 003°13'0 0.0
2017-Apr-26 16:00N 51°20' E 003°13'1 3.0
2017-Apr-26 15:30N 51°19' E 003°14'0 0.0
2017-Apr-26 14:59N 51°19' E 003°14'0 0.0
2017-Apr-26 13:59N 51°19' E 003°14'0 0.0
2017-Apr-26 13:29N 51°19' E 003°14'0 0.0
2017-Apr-26 12:59N 51°19' E 003°14'0 0.0
2017-Apr-26 12:29N 51°19' E 003°14'0 0.0
2017-Apr-26 11:59N 51°19' E 003°14'0 0.0
2017-Apr-26 11:29N 51°19' E 003°14'0 0.0
2017-Apr-26 10:59N 51°19' E 003°14'0 0.0
2017-Apr-26 10:29N 51°19' E 003°14'0 0.0
2017-Apr-26 09:59N 51°19' E 003°14'0 0.0
2017-Apr-26 09:29N 51°19' E 003°14'0 0.0
2017-Apr-26 08:59N 51°19' E 003°14'0 0.0
2017-Apr-26 08:29N 51°19' E 003°14'0 0.0
2017-Apr-26 07:59N 51°19' E 003°14'0 0.0
2017-Apr-26 07:29N 51°19' E 003°14'0 0.0
2017-Apr-26 06:59N 51°19' E 003°14'1 1.6
2017-Apr-26 06:30N 51°19' E 003°13'1 1.5
2017-Apr-26 06:00N 51°20' E 003°13'0 0.0
2017-Apr-26 05:30N 51°20' E 003°13'1 1.0
2017-Apr-26 05:00N 51°21' E 003°13'3 6.8
2017-Apr-26 04:30N 51°23' E 003°09'510.6
2017-Apr-26 04:00N 51°24' E 003°01'611.9
2017-Apr-26 03:30N 51°22' E 002°52'5 9.6
2017-Apr-26 03:01N 51°22' E 002°44'3 6.7
2017-Apr-26 02:30N 51°25' E 002°42'611.3
2017-Apr-26 02:00N 51°30' E 002°47'612.7
2017-Apr-26 01:30N 51°35' E 002°54'612.1
2017-Apr-26 01:00N 51°39' E 003°01'813.1
2017-Apr-26 00:25N 51°45' E 003°09'3616.0
2017-Apr-25 22:10N 52°16' E 003°37'317.1
2017-Apr-25 22:00N 52°18' E 003°40'817.2
2017-Apr-25 21:30N 52°25' E 003°49'815.9
2017-Apr-25 21:00N 52°31' E 003°58'816.4
2017-Apr-25 20:30N 52°31' E 004°11'715.2
2017-Apr-25 20:00N 52°29' E 004°23'5 9.4
2017-Apr-25 19:30N 52°28' E 004°31'4 7.0
2017-Apr-25 19:01N 52°28' E 004°36'0 0.1
2017-Apr-25 18:31N 52°28' E 004°37'1 1.2
2017-Apr-25 18:00N 52°28' E 004°37'0 0.1
2017-Apr-25 17:30N 52°28' E 004°38'1 2.6
2017-Apr-25 17:01N 52°28' E 004°40'4 7.1
2017-Apr-25 16:31N 52°26' E 004°45'3 5.3
2017-Apr-25 16:00N 52°25' E 004°49'1 1.1
2017-Apr-25 15:29N 52°24' E 004°49'0 0.0
2017-Apr-25 14:59N 52°24' E 004°49'0 0.0
2017-Apr-25 14:29N 52°24' E 004°49'0 0.0
2017-Apr-25 13:29N 52°24' E 004°49'0 0.0
2017-Apr-25 12:59N 52°24' E 004°49'0 0.0
2017-Apr-25 12:29N 52°24' E 004°49'0 0.0
2017-Apr-25 11:59N 52°24' E 004°49'0 0.0
2017-Apr-25 11:29N 52°24' E 004°49'0 0.0
2017-Apr-25 10:59N 52°24' E 004°49'0 0.0
2017-Apr-25 10:29N 52°24' E 004°49'0 0.0
2017-Apr-25 09:59N 52°24' E 004°49'0 0.0
2017-Apr-25 09:29N 52°24' E 004°49'0 0.0
2017-Apr-25 08:59N 52°24' E 004°49'0 0.0
2017-Apr-25 08:28N 52°24' E 004°49'0 0.0
2017-Apr-25 07:58N 52°24' E 004°49'0 0.0
2017-Apr-25 07:25N 52°24' E 004°49'0 0.0
2017-Apr-25 06:58N 52°24' E 004°49'0 0.0
2017-Apr-25 06:28N 52°24' E 004°49'0 0.0
2017-Apr-25 05:58N 52°24' E 004°49'0 0.0
2017-Apr-25 05:28N 52°24' E 004°49'0 0.0
2017-Apr-25 04:58N 52°24' E 004°49'0 0.0
2017-Apr-25 04:28N 52°24' E 004°49'0 0.0
2017-Apr-25 03:58N 52°24' E 004°49'1 1.7
2017-Apr-25 03:30N 52°25' E 004°49'4 7.6
2017-Apr-25 03:00N 52°26' E 004°43'4 7.9
2017-Apr-25 02:30N 52°28' E 004°37'0 0.6
2017-Apr-25 02:00N 52°28' E 004°36'3 6.6
2017-Apr-25 01:30N 52°28' E 004°31'4 8.6
2017-Apr-25 01:00N 52°29' E 004°24'4 9.0
2017-Apr-25 00:30N 52°29' E 004°17'611.3
2017-Apr-25 00:00N 52°31' E 004°08'612.6
2017-Apr-24 23:30N 52°37' E 004°03'612.8
2017-Apr-24 23:00N 52°42' E 003°57'612.9
2017-Apr-24 22:30N 52°47' E 003°50'612.9
2017-Apr-24 22:00N 52°52' E 003°43'713.4
2017-Apr-24 21:30N 52°57' E 003°35'713.9
2017-Apr-24 21:00N 53°03' E 003°29'12014.0
2017-Apr-24 12:23N 54°15' E 000°46'613.7
2017-Apr-24 11:58N 54°18' E 000°38'613.6
2017-Apr-24 11:30N 54°22' E 000°29'713.5
2017-Apr-24 11:00N 54°26' E 000°20'713.3
2017-Apr-24 10:30N 54°30' E 000°11'713.0
2017-Apr-24 10:00N 54°34' E 000°02'612.9
2017-Apr-24 09:30N 54°38' W 000°07'612.9
2017-Apr-24 09:00N 54°42' W 000°16'812.7
2017-Apr-24 08:24N 54°46' W 000°26'712.5
2017-Apr-24 07:51N 54°49' W 000°37'512.8
2017-Apr-24 07:26N 54°49' W 000°46'512.9
2017-Apr-24 07:00N 54°52' W 000°55'713.1
2017-Apr-24 06:30N 54°56' W 001°04'713.2
2017-Apr-24 06:00N 54°59' W 001°14'510.9
2017-Apr-24 05:30N 55°01' W 001°23'3 6.3
2017-Apr-24 05:00N 54°59' W 001°28'0 0.2
2017-Apr-24 04:30N 54°59' W 001°28'0 0.0
2017-Apr-24 03:51N 54°59' W 001°28'0 0.0
2017-Apr-24 03:27N 54°59' W 001°28'0 0.0
2017-Apr-24 02:57N 54°59' W 001°28'0 0.0
2017-Apr-24 02:30N 54°59' W 001°28'0 0.0
2017-Apr-24 02:00N 54°59' W 001°28'0 0.0
2017-Apr-24 01:30N 54°59' W 001°28'0 0.0
2017-Apr-24 01:00N 54°59' W 001°28'0 0.0
2017-Apr-24 00:30N 54°59' W 001°28'0 0.0
2017-Apr-24 00:00N 54°59' W 001°28'0 0.0
2017-Apr-23 23:30N 54°59' W 001°28'0 0.0
2017-Apr-23 23:00N 54°59' W 001°28'0 0.0
2017-Apr-23 22:30N 54°59' W 001°28'0 0.0
2017-Apr-23 22:00N 54°59' W 001°28'0 0.0
2017-Apr-23 21:30N 54°59' W 001°28'0 0.0
2017-Apr-23 21:00N 54°59' W 001°28'0 0.0
2017-Apr-23 20:27N 54°59' W 001°28'0 0.0
2017-Apr-23 20:00N 54°59' W 001°28'0 0.0
2017-Apr-23 19:27N 54°59' W 001°28'0 0.0
2017-Apr-23 18:57N 54°59' W 001°28'0 0.0
2017-Apr-23 18:30N 54°59' W 001°28'0 0.0
2017-Apr-23 18:00N 54°59' W 001°28'0 0.0
2017-Apr-23 17:27N 54°59' W 001°28'0 0.0
2017-Apr-23 17:00N 54°59' W 001°28'0 0.0
2017-Apr-23 16:30N 54°59' W 001°28'0 0.0
2017-Apr-23 16:00N 54°59' W 001°28'0 0.0
2017-Apr-23 15:30N 54°59' W 001°28'0 0.0
2017-Apr-23 15:00N 54°59' W 001°28'0 0.0
2017-Apr-23 14:00N 54°59' W 001°28'0 0.0
2017-Apr-23 13:30N 54°59' W 001°28'0 0.0
2017-Apr-23 13:00N 54°59' W 001°28'0 0.0
2017-Apr-23 12:30N 54°59' W 001°28'0 0.0
2017-Apr-23 11:59N 54°59' W 001°28'0 0.0
2017-Apr-23 11:29N 54°59' W 001°28'0 0.0
2017-Apr-23 10:59N 54°59' W 001°28'0 0.0
2017-Apr-23 10:29N 54°59' W 001°28'0 0.0
2017-Apr-23 09:59N 54°59' W 001°28'0 0.0
2017-Apr-23 09:29N 54°59' W 001°28'0 0.0
2017-Apr-23 08:59N 54°59' W 001°28'0 0.0
2017-Apr-23 08:29N 54°59' W 001°28'0 0.0
2017-Apr-23 07:59N 54°59' W 001°28'0 0.0
2017-Apr-23 07:29N 54°59' W 001°28'0 0.0
2017-Apr-23 06:59N 54°59' W 001°28'0 0.0
2017-Apr-23 06:29N 54°59' W 001°28'0 0.0
2017-Apr-23 05:59N 54°59' W 001°28'0 0.0
2017-Apr-23 05:29N 54°59' W 001°28'0 0.0
2017-Apr-23 04:59N 54°59' W 001°28'0 0.0
2017-Apr-23 04:29N 54°59' W 001°28'0 0.0
2017-Apr-23 03:59N 54°59' W 001°28'0 0.0
2017-Apr-23 03:29N 54°59' W 001°28'0 0.0
2017-Apr-23 02:59N 54°59' W 001°28'0 0.0
2017-Apr-23 02:29N 54°59' W 001°28'0 0.0
2017-Apr-23 01:59N 54°59' W 001°28'0 0.0
2017-Apr-23 01:26N 54°59' W 001°28'0 0.0
2017-Apr-23 00:59N 54°59' W 001°28'0 0.0
2017-Apr-23 00:29N 54°59' W 001°28'0 0.0
2017-Apr-22 23:59N 54°59' W 001°28'0 0.0
2017-Apr-22 23:29N 54°59' W 001°28'0 0.0
2017-Apr-22 22:56N 54°59' W 001°28'0 0.0
2017-Apr-22 22:23N 54°59' W 001°28'0 0.0
2017-Apr-22 21:59N 54°59' W 001°28'0 0.0
2017-Apr-22 21:29N 54°59' W 001°28'0 0.0
2017-Apr-22 20:59N 54°59' W 001°28'0 0.0
2017-Apr-22 20:29N 54°59' W 001°28'0 0.0
2017-Apr-22 19:59N 54°59' W 001°28'0 0.0
2017-Apr-22 19:29N 54°59' W 001°28'0 0.0
2017-Apr-22 18:56N 54°59' W 001°28'0 0.0
2017-Apr-22 18:29N 54°59' W 001°28'0 0.0
2017-Apr-22 17:59N 54°59' W 001°28'0 0.0
2017-Apr-22 17:29N 54°59' W 001°28'0 0.0
2017-Apr-22 16:59N 54°59' W 001°28'0 0.0
2017-Apr-22 16:29N 54°59' W 001°28'0 0.0
2017-Apr-22 15:59N 54°59' W 001°28'0 0.0
2017-Apr-22 15:29N 54°59' W 001°28'0 0.0
2017-Apr-22 14:59N 54°59' W 001°28'0 0.0
2017-Apr-22 14:29N 54°59' W 001°28'0 0.0
2017-Apr-22 13:29N 54°59' W 001°28'0 0.0
2017-Apr-22 12:59N 54°59' W 001°28'0 0.0
2017-Apr-22 12:29N 54°59' W 001°28'0 0.0
2017-Apr-22 11:59N 54°59' W 001°28'0 0.0
2017-Apr-22 11:29N 54°59' W 001°28'0 0.0
2017-Apr-22 10:59N 54°59' W 001°28'0 0.0
2017-Apr-22 10:29N 54°59' W 001°28'0 0.0
2017-Apr-22 09:59N 54°59' W 001°28'0 0.0
2017-Apr-22 09:29N 54°59' W 001°28'0 0.0
2017-Apr-22 08:59N 54°59' W 001°28'0 0.0
2017-Apr-22 08:29N 54°59' W 001°28'0 0.0
2017-Apr-22 07:59N 54°59' W 001°28'0 0.0
2017-Apr-22 07:29N 54°59' W 001°28'0 0.0
2017-Apr-22 06:47N 54°59' W 001°28'0 0.0
2017-Apr-22 06:29N 54°59' W 001°28'0 0.0
2017-Apr-22 05:59N 54°59' W 001°28'0 0.0
2017-Apr-22 05:29N 54°59' W 001°28'0 0.0
2017-Apr-22 04:59N 54°59' W 001°28'0 0.0
2017-Apr-22 04:29N 54°59' W 001°28'0 0.0
2017-Apr-22 03:59N 54°59' W 001°28'0 0.0
2017-Apr-22 03:29N 54°59' W 001°28'0 0.0
2017-Apr-22 02:59N 54°59' W 001°28'0 0.0
2017-Apr-22 02:28N 54°59' W 001°28'0 0.0
2017-Apr-22 01:58N 54°59' W 001°28'0 0.0
2017-Apr-22 01:28N 54°59' W 001°28'0 0.0
2017-Apr-22 00:52N 54°59' W 001°28'0 0.0
2017-Apr-22 00:28N 54°59' W 001°28'0 0.0
2017-Apr-21 23:58N 54°59' W 001°28'0 0.0
2017-Apr-21 23:28N 54°59' W 001°28'0 0.0
2017-Apr-21 22:58N 54°59' W 001°28'0 0.0
2017-Apr-21 22:28N 54°59' W 001°28'0 0.0
2017-Apr-21 21:58N 54°59' W 001°28'0 0.0
2017-Apr-21 21:25N 54°59' W 001°28'0 0.0
2017-Apr-21 20:55N 54°59' W 001°28'0 0.0
2017-Apr-21 20:28N 54°59' W 001°28'0 0.0
2017-Apr-21 19:58N 54°59' W 001°28'0 0.0
2017-Apr-21 19:28N 54°59' W 001°28'0 0.0
2017-Apr-21 18:58N 54°59' W 001°28'0 0.0
2017-Apr-21 18:28N 54°59' W 001°28'0 0.0
2017-Apr-21 17:58N 54°59' W 001°28'0 0.0
2017-Apr-21 17:28N 54°59' W 001°28'0 1.0
2017-Apr-21 17:00N 54°59' W 001°27'3 6.1
2017-Apr-21 16:30N 55°01' W 001°23'3 5.2
2017-Apr-21 16:01N 55°02' W 001°18'611.8
2017-Apr-21 15:31N 54°57' W 001°12'816.9
2017-Apr-21 15:01N 54°51' W 001°01'2316.3
2017-Apr-21 13:34N 54°35' W 000°32'115.7
2017-Apr-21 13:31N 54°35' W 000°31'815.6
2017-Apr-21 13:00N 54°29' W 000°21'815.5
2017-Apr-21 12:31N 54°24' W 000°11'815.5
2017-Apr-21 12:01N 54°18' W 000°03'815.6
2017-Apr-21 11:31N 54°12' E 000°06'815.5
2017-Apr-21 11:01N 54°05' E 000°13'815.9
2017-Apr-21 10:31N 53°59' E 000°22'4716.6
2017-Apr-21 07:42N 53°22' E 001°09'317.1
2017-Apr-21 07:30N 53°19' E 001°12'917.0
2017-Apr-21 07:00N 53°12' E 001°19'816.6
2017-Apr-21 06:31N 53°05' E 001°27'816.3
2017-Apr-21 06:01N 52°58' E 001°34'815.7
2017-Apr-21 05:31N 52°52' E 001°43'815.5
2017-Apr-21 05:01N 52°48' E 001°54'714.8
2017-Apr-21 04:30N 52°42' E 002°02'815.3
2017-Apr-21 04:00N 52°35' E 002°06'4815.8
2017-Apr-21 00:57N 51°49' E 002°29'916.4
2017-Apr-21 00:23N 51°43' E 002°40'617.0
2017-Apr-21 00:00N 51°37' E 002°43'817.0
2017-Apr-20 23:31N 51°28' E 002°42'4 8.6
2017-Apr-20 23:00N 51°25' E 002°46'612.3
2017-Apr-20 22:30N 51°25' E 002°56'713.0
2017-Apr-20 22:00N 51°24' E 003°07'510.4
2017-Apr-20 21:30N 51°20' E 003°13'0 0.7
2017-Apr-20 21:00N 51°20' E 003°13'1 1.7
2017-Apr-20 20:31N 51°19' E 003°13'1 0.9
2017-Apr-20 19:58N 51°19' E 003°13'0 0.0
2017-Apr-20 19:28N 51°19' E 003°13'0 0.0
2017-Apr-20 18:58N 51°19' E 003°13'0 0.0
2017-Apr-20 18:28N 51°19' E 003°13'0 0.0
2017-Apr-20 17:58N 51°19' E 003°13'0 0.0
2017-Apr-20 17:28N 51°19' E 003°13'0 0.0
2017-Apr-20 16:58N 51°19' E 003°13'0 0.0
2017-Apr-20 16:28N 51°19' E 003°13'0 0.0
2017-Apr-20 15:58N 51°19' E 003°13'0 0.0
2017-Apr-20 15:28N 51°19' E 003°13'0 0.0
2017-Apr-20 14:58N 51°19' E 003°13'  
Track history (hours):
 
Tides and Currents Weather Stations Pressure Air Temp Water Temp Dewpoint Dewpoint Depression Visibility Wind Speed Wind Dir Waves Ship Positions

Planet Ace

Last reported at 2017-Apr-30 14:28 UTC. Time now 2017-Apr-30 14:55 UTC.
Position N 35°54' W 005°59'.

Length 188 m; beam 28.2 m.

Type: Cargo ship. MMSI: 352168000.

Date/timePositionNaut miles runAvg speedWind from/ knotsBaromVisibWave heightAir tempDewpointWater temp
2017-Apr-30 14:28N 35°54' W 005°59'23812.7
2017-Apr-29 19:43N 38°16' W 009°59'314.3
2017-Apr-29 19:30N 38°19' W 009°60'714.4
2017-Apr-29 19:00N 38°26' W 010°02'714.3
2017-Apr-29 18:30N 38°33' W 010°05'714.5
2017-Apr-29 18:00N 38°40' W 010°07'714.5
2017-Apr-29 17:30N 38°47' W 010°07'714.7
2017-Apr-29 17:00N 38°55' W 010°08'714.7
2017-Apr-29 16:30N 39°02' W 010°08'714.8
2017-Apr-29 16:01N 39°09' W 010°07'714.7
2017-Apr-29 15:30N 39°17' W 010°07'815.2
2017-Apr-29 15:00N 39°24' W 010°07'66114.2
2017-Apr-27 16:35N 49°39' W 004°25'113.0
2017-Apr-27 16:30N 49°40' W 004°24'713.2
2017-Apr-27 16:00N 49°44' W 004°17'713.8
2017-Apr-27 15:30N 49°49' W 004°09'714.4
2017-Apr-27 15:00N 49°54' W 004°01'1515.5
2017-Apr-27 14:00N 50°05' W 003°44'816.7
2017-Apr-27 13:30N 50°11' W 003°35'815.8
2017-Apr-27 13:00N 50°17' W 003°27'714.0
2017-Apr-27 12:31N 50°24' W 003°26'5 9.4
2017-Apr-27 12:00N 50°25' W 003°19'714.9
2017-Apr-27 11:30N 50°26' W 003°08'714.6
2017-Apr-27 11:01N 50°26' W 002°56'714.1
2017-Apr-27 10:31N 50°25' W 002°45'713.3
2017-Apr-27 10:00N 50°25' W 002°35'612.2
2017-Apr-27 09:30N 50°25' W 002°25'1911.1
2017-Apr-27 07:47N 50°25' W 001°55'311.1
2017-Apr-27 07:29N 50°25' W 001°50'811.4
2017-Apr-27 06:46N 50°25' W 001°37'412.0
2017-Apr-27 06:28N 50°25' W 001°31'612.6
2017-Apr-27 06:00N 50°25' W 001°22'713.6
2017-Apr-27 05:30N 50°25' W 001°12'814.9
2017-Apr-27 04:58N 50°25' W 000°59'816.4
2017-Apr-27 04:30N 50°26' W 000°47'817.0
2017-Apr-27 04:00N 50°28' W 000°34'816.9
2017-Apr-27 03:30N 50°30' W 000°21'816.6
2017-Apr-27 03:00N 50°31' W 000°08'816.5
2017-Apr-27 02:30N 50°33' E 000°04'816.3
2017-Apr-27 02:00N 50°36' E 000°16'816.0
2017-Apr-27 01:30N 50°38' E 000°29'815.4
2017-Apr-27 01:00N 50°40' E 000°40'714.7
2017-Apr-27 00:30N 50°45' E 000°50'714.0
2017-Apr-27 00:00N 50°49' E 000°59'713.5
2017-Apr-26 23:30N 50°53' E 001°07'713.1
2017-Apr-26 23:00N 50°57' E 001°15'612.6
2017-Apr-26 22:31N 51°01' E 001°22'714.6
2017-Apr-26 22:00N 51°05' E 001°32'815.7
2017-Apr-26 21:30N 51°10' E 001°42'816.9
2017-Apr-26 21:01N 51°16' E 001°51'917.6
2017-Apr-26 20:31N 51°24' E 001°58'714.5
2017-Apr-26 20:00N 51°24' E 002°10'713.4
2017-Apr-26 19:31N 51°21' E 002°20'816.7
2017-Apr-26 19:01N 51°23' E 002°33'815.2
2017-Apr-26 18:30N 51°22' E 002°45'713.3
2017-Apr-26 18:00N 51°23' E 002°55'714.2
2017-Apr-26 17:30N 51°24' E 003°07'510.5
2017-Apr-26 17:00N 51°20' E 003°13'0 0.7
2017-Apr-26 16:30N 51°20' E 003°13'0 0.0
2017-Apr-26 16:00N 51°20' E 003°13'1 3.0
2017-Apr-26 15:30N 51°19' E 003°14'0 0.0
2017-Apr-26 14:59N 51°19' E 003°14'0 0.0
2017-Apr-26 13:59N 51°19' E 003°14'0 0.0
2017-Apr-26 13:29N 51°19' E 003°14'0 0.0
2017-Apr-26 12:59N 51°19' E 003°14'0 0.0
2017-Apr-26 12:29N 51°19' E 003°14'0 0.0
2017-Apr-26 11:59N 51°19' E 003°14'0 0.0
2017-Apr-26 11:29N 51°19' E 003°14'0 0.0
2017-Apr-26 10:59N 51°19' E 003°14'0 0.0
2017-Apr-26 10:29N 51°19' E 003°14'0 0.0
2017-Apr-26 09:59N 51°19' E 003°14'0 0.0
2017-Apr-26 09:29N 51°19' E 003°14'0 0.0
2017-Apr-26 08:59N 51°19' E 003°14'0 0.0
2017-Apr-26 08:29N 51°19' E 003°14'0 0.0
2017-Apr-26 07:59N 51°19' E 003°14'0 0.0
2017-Apr-26 07:29N 51°19' E 003°14'0 0.0
2017-Apr-26 06:59N 51°19' E 003°14'1 1.6
2017-Apr-26 06:30N 51°19' E 003°13'1 1.5
2017-Apr-26 06:00N 51°20' E 003°13'0 0.0
2017-Apr-26 05:30N 51°20' E 003°13'1 1.0
2017-Apr-26 05:00N 51°21' E 003°13'3 6.8
2017-Apr-26 04:30N 51°23' E 003°09'510.6
2017-Apr-26 04:00N 51°24' E 003°01'611.9
2017-Apr-26 03:30N 51°22' E 002°52'5 9.6
2017-Apr-26 03:01N 51°22' E 002°44'3 6.7
2017-Apr-26 02:30N 51°25' E 002°42'611.3
2017-Apr-26 02:00N 51°30' E 002°47'612.7
2017-Apr-26 01:30N 51°35' E 002°54'612.1
2017-Apr-26 01:00N 51°39' E 003°01'813.1
2017-Apr-26 00:25N 51°45' E 003°09'3616.0
2017-Apr-25 22:10N 52°16' E 003°37'317.1
2017-Apr-25 22:00N 52°18' E 003°40'817.2
2017-Apr-25 21:30N 52°25' E 003°49'815.9
2017-Apr-25 21:00N 52°31' E 003°58'816.4
2017-Apr-25 20:30N 52°31' E 004°11'715.2
2017-Apr-25 20:00N 52°29' E 004°23'5 9.4
2017-Apr-25 19:30N 52°28' E 004°31'4 7.0
2017-Apr-25 19:01N 52°28' E 004°36'0 0.1
2017-Apr-25 18:31N 52°28' E 004°37'1 1.2
2017-Apr-25 18:00N 52°28' E 004°37'0 0.1
2017-Apr-25 17:30N 52°28' E 004°38'1 2.6
2017-Apr-25 17:01N 52°28' E 004°40'4 7.1
2017-Apr-25 16:31N 52°26' E 004°45'3 5.3
2017-Apr-25 16:00N 52°25' E 004°49'1 1.1
2017-Apr-25 15:29N 52°24' E 004°49'0 0.0
2017-Apr-25 14:59N 52°24' E 004°49'0 0.0
2017-Apr-25 14:29N 52°24' E 004°49'0 0.0
2017-Apr-25 13:29N 52°24' E 004°49'0 0.0
2017-Apr-25 12:59N 52°24' E 004°49'0 0.0
2017-Apr-25 12:29N 52°24' E 004°49'0 0.0
2017-Apr-25 11:59N 52°24' E 004°49'0 0.0
2017-Apr-25 11:29N 52°24' E 004°49'0 0.0
2017-Apr-25 10:59N 52°24' E 004°49'0 0.0
2017-Apr-25 10:29N 52°24' E 004°49'0 0.0
2017-Apr-25 09:59N 52°24' E 004°49'0 0.0
2017-Apr-25 09:29N 52°24' E 004°49'0 0.0
2017-Apr-25 08:59N 52°24' E 004°49'0 0.0
2017-Apr-25 08:28N 52°24' E 004°49'0 0.0
2017-Apr-25 07:58N 52°24' E 004°49'0 0.0
2017-Apr-25 07:25N 52°24' E 004°49'0 0.0
2017-Apr-25 06:58N 52°24' E 004°49'0 0.0
2017-Apr-25 06:28N 52°24' E 004°49'0 0.0
2017-Apr-25 05:58N 52°24' E 004°49'0 0.0
2017-Apr-25 05:28N 52°24' E 004°49'0 0.0
2017-Apr-25 04:58N 52°24' E 004°49'0 0.0
2017-Apr-25 04:28N 52°24' E 004°49'0 0.0
2017-Apr-25 03:58N 52°24' E 004°49'1 1.7
2017-Apr-25 03:30N 52°25' E 004°49'4 7.6
2017-Apr-25 03:00N 52°26' E 004°43'4 7.9
2017-Apr-25 02:30N 52°28' E 004°37'0 0.6
2017-Apr-25 02:00N 52°28' E 004°36'3 6.6
2017-Apr-25 01:30N 52°28' E 004°31'4 8.6
2017-Apr-25 01:00N 52°29' E 004°24'4 9.0
2017-Apr-25 00:30N 52°29' E 004°17'611.3
2017-Apr-25 00:00N 52°31' E 004°08'612.6
2017-Apr-24 23:30N 52°37' E 004°03'612.8
2017-Apr-24 23:00N 52°42' E 003°57'612.9
2017-Apr-24 22:30N 52°47' E 003°50'612.9
2017-Apr-24 22:00N 52°52' E 003°43'713.4
2017-Apr-24 21:30N 52°57' E 003°35'713.9
2017-Apr-24 21:00N 53°03' E 003°29'12014.0
2017-Apr-24 12:23N 54°15' E 000°46'613.7
2017-Apr-24 11:58N 54°18' E 000°38'613.6
2017-Apr-24 11:30N 54°22' E 000°29'713.5
2017-Apr-24 11:00N 54°26' E 000°20'713.3
2017-Apr-24 10:30N 54°30' E 000°11'713.0
2017-Apr-24 10:00N 54°34' E 000°02'612.9
2017-Apr-24 09:30N 54°38' W 000°07'612.9
2017-Apr-24 09:00N 54°42' W 000°16'812.7
2017-Apr-24 08:24N 54°46' W 000°26'712.5
2017-Apr-24 07:51N 54°49' W 000°37'512.8
2017-Apr-24 07:26N 54°49' W 000°46'512.9
2017-Apr-24 07:00N 54°52' W 000°55'713.1
2017-Apr-24 06:30N 54°56' W 001°04'713.2
2017-Apr-24 06:00N 54°59' W 001°14'510.9
2017-Apr-24 05:30N 55°01' W 001°23'3 6.3
2017-Apr-24 05:00N 54°59' W 001°28'0 0.2
2017-Apr-24 04:30N 54°59' W 001°28'0 0.0
2017-Apr-24 03:51N 54°59' W 001°28'0 0.0
2017-Apr-24 03:27N 54°59' W 001°28'0 0.0
2017-Apr-24 02:57N 54°59' W 001°28'0 0.0
2017-Apr-24 02:30N 54°59' W 001°28'0 0.0
2017-Apr-24 02:00N 54°59' W 001°28'0 0.0
2017-Apr-24 01:30N 54°59' W 001°28'0 0.0
2017-Apr-24 01:00N 54°59' W 001°28'0 0.0
2017-Apr-24 00:30N 54°59' W 001°28'0 0.0
2017-Apr-24 00:00N 54°59' W 001°28'0 0.0
2017-Apr-23 23:30N 54°59' W 001°28'0 0.0
2017-Apr-23 23:00N 54°59' W 001°28'0 0.0
2017-Apr-23 22:30N 54°59' W 001°28'0 0.0
2017-Apr-23 22:00N 54°59' W 001°28'0 0.0
2017-Apr-23 21:30N 54°59' W 001°28'0 0.0
2017-Apr-23 21:00N 54°59' W 001°28'0 0.0
2017-Apr-23 20:27N 54°59' W 001°28'0 0.0
2017-Apr-23 20:00N 54°59' W 001°28'0 0.0
2017-Apr-23 19:27N 54°59' W 001°28'0 0.0
2017-Apr-23 18:57N 54°59' W 001°28'0 0.0
2017-Apr-23 18:30N 54°59' W 001°28'0 0.0
2017-Apr-23 18:00N 54°59' W 001°28'0 0.0
2017-Apr-23 17:27N 54°59' W 001°28'0 0.0
2017-Apr-23 17:00N 54°59' W 001°28'0 0.0
2017-Apr-23 16:30N 54°59' W 001°28'0 0.0
2017-Apr-23 16:00N 54°59' W 001°28'0 0.0
2017-Apr-23 15:30N 54°59' W 001°28'0 0.0
2017-Apr-23 15:00N 54°59' W 001°28'0 0.0
2017-Apr-23 14:00N 54°59' W 001°28'0 0.0
2017-Apr-23 13:30N 54°59' W 001°28'0 0.0
2017-Apr-23 13:00N 54°59' W 001°28'0 0.0
2017-Apr-23 12:30N 54°59' W 001°28'0 0.0
2017-Apr-23 11:59N 54°59' W 001°28'0 0.0
2017-Apr-23 11:29N 54°59' W 001°28'0 0.0
2017-Apr-23 10:59N 54°59' W 001°28'0 0.0
2017-Apr-23 10:29N 54°59' W 001°28'0 0.0
2017-Apr-23 09:59N 54°59' W 001°28'0 0.0
2017-Apr-23 09:29N 54°59' W 001°28'0 0.0
2017-Apr-23 08:59N 54°59' W 001°28'0 0.0
2017-Apr-23 08:29N 54°59' W 001°28'0 0.0
2017-Apr-23 07:59N 54°59' W 001°28'0 0.0
2017-Apr-23 07:29N 54°59' W 001°28'0 0.0
2017-Apr-23 06:59N 54°59' W 001°28'0 0.0
2017-Apr-23 06:29N 54°59' W 001°28'0 0.0
2017-Apr-23 05:59N 54°59' W 001°28'0 0.0
2017-Apr-23 05:29N 54°59' W 001°28'0 0.0
2017-Apr-23 04:59N 54°59' W 001°28'0 0.0
2017-Apr-23 04:29N 54°59' W 001°28'0 0.0
2017-Apr-23 03:59N 54°59' W 001°28'0 0.0
2017-Apr-23 03:29N 54°59' W 001°28'0 0.0
2017-Apr-23 02:59N 54°59' W 001°28'0 0.0
2017-Apr-23 02:29N 54°59' W 001°28'0 0.0
2017-Apr-23 01:59N 54°59' W 001°28'0 0.0
2017-Apr-23 01:26N 54°59' W 001°28'0 0.0
2017-Apr-23 00:59N 54°59' W 001°28'0 0.0
2017-Apr-23 00:29N 54°59' W 001°28'0 0.0
2017-Apr-22 23:59N 54°59' W 001°28'0 0.0
2017-Apr-22 23:29N 54°59' W 001°28'0 0.0
2017-Apr-22 22:56N 54°59' W 001°28'0 0.0
2017-Apr-22 22:23N 54°59' W 001°28'0 0.0
2017-Apr-22 21:59N 54°59' W 001°28'0 0.0
2017-Apr-22 21:29N 54°59' W 001°28'0 0.0
2017-Apr-22 20:59N 54°59' W 001°28'0 0.0
2017-Apr-22 20:29N 54°59' W 001°28'0 0.0
2017-Apr-22 19:59N 54°59' W 001°28'0 0.0
2017-Apr-22 19:29N 54°59' W 001°28'0 0.0
2017-Apr-22 18:56N 54°59' W 001°28'0 0.0
2017-Apr-22 18:29N 54°59' W 001°28'0 0.0
2017-Apr-22 17:59N 54°59' W 001°28'0 0.0
2017-Apr-22 17:29N 54°59' W 001°28'0 0.0
2017-Apr-22 16:59N 54°59' W 001°28'0 0.0
2017-Apr-22 16:29N 54°59' W 001°28'0 0.0
2017-Apr-22 15:59N 54°59' W 001°28'0 0.0
2017-Apr-22 15:29N 54°59' W 001°28'0 0.0
2017-Apr-22 14:59N 54°59' W 001°28'0 0.0
2017-Apr-22 14:29N 54°59' W 001°28'0 0.0
2017-Apr-22 13:29N 54°59' W 001°28'0 0.0
2017-Apr-22 12:59N 54°59' W 001°28'0 0.0
2017-Apr-22 12:29N 54°59' W 001°28'0 0.0
2017-Apr-22 11:59N 54°59' W 001°28'0 0.0
2017-Apr-22 11:29N 54°59' W 001°28'0 0.0
2017-Apr-22 10:59N 54°59' W 001°28'0 0.0
2017-Apr-22 10:29N 54°59' W 001°28'0 0.0
2017-Apr-22 09:59N 54°59' W 001°28'0 0.0
2017-Apr-22 09:29N 54°59' W 001°28'0 0.0
2017-Apr-22 08:59N 54°59' W 001°28'0 0.0
2017-Apr-22 08:29N 54°59' W 001°28'0 0.0
2017-Apr-22 07:59N 54°59' W 001°28'0 0.0
2017-Apr-22 07:29N 54°59' W 001°28'0 0.0
2017-Apr-22 06:47N 54°59' W 001°28'0 0.0
2017-Apr-22 06:29N 54°59' W 001°28'0 0.0
2017-Apr-22 05:59N 54°59' W 001°28'0 0.0
2017-Apr-22 05:29N 54°59' W 001°28'0 0.0
2017-Apr-22 04:59N 54°59' W 001°28'0 0.0
2017-Apr-22 04:29N 54°59' W 001°28'0 0.0
2017-Apr-22 03:59N 54°59' W 001°28'0 0.0
2017-Apr-22 03:29N 54°59' W 001°28'0 0.0
2017-Apr-22 02:59N 54°59' W 001°28'0 0.0
2017-Apr-22 02:28N 54°59' W 001°28'0 0.0
2017-Apr-22 01:58N 54°59' W 001°28'0 0.0
2017-Apr-22 01:28N 54°59' W 001°28'0 0.0
2017-Apr-22 00:52N 54°59' W 001°28'0 0.0
2017-Apr-22 00:28N 54°59' W 001°28'0 0.0
2017-Apr-21 23:58N 54°59' W 001°28'0 0.0
2017-Apr-21 23:28N 54°59' W 001°28'0 0.0
2017-Apr-21 22:58N 54°59' W 001°28'0 0.0
2017-Apr-21 22:28N 54°59' W 001°28'0 0.0
2017-Apr-21 21:58N 54°59' W 001°28'0 0.0
2017-Apr-21 21:25N 54°59' W 001°28'0 0.0
2017-Apr-21 20:55N 54°59' W 001°28'0 0.0
2017-Apr-21 20:28N 54°59' W 001°28'0 0.0
2017-Apr-21 19:58N 54°59' W 001°28'0 0.0
2017-Apr-21 19:28N 54°59' W 001°28'0 0.0
2017-Apr-21 18:58N 54°59' W 001°28'0 0.0
2017-Apr-21 18:28N 54°59' W 001°28'0 0.0
2017-Apr-21 17:58N 54°59' W 001°28'0 0.0
2017-Apr-21 17:28N 54°59' W 001°28'0 1.0
2017-Apr-21 17:00N 54°59' W 001°27'3 6.1
2017-Apr-21 16:30N 55°01' W 001°23'3 5.2
2017-Apr-21 16:01N 55°02' W 001°18'611.8
2017-Apr-21 15:31N 54°57' W 001°12'816.9
2017-Apr-21 15:01N 54°51' W 001°01'2316.3
2017-Apr-21 13:34N 54°35' W 000°32'115.7
2017-Apr-21 13:31N 54°35' W 000°31'815.6
2017-Apr-21 13:00N 54°29' W 000°21'815.5
2017-Apr-21 12:31N 54°24' W 000°11'815.5
2017-Apr-21 12:01N 54°18' W 000°03'815.6
2017-Apr-21 11:31N 54°12' E 000°06'815.5
2017-Apr-21 11:01N 54°05' E 000°13'815.9
2017-Apr-21 10:31N 53°59' E 000°22'4716.6
2017-Apr-21 07:42N 53°22' E 001°09'317.1
2017-Apr-21 07:30N 53°19' E 001°12'917.0
2017-Apr-21 07:00N 53°12' E 001°19'816.6
2017-Apr-21 06:31N 53°05' E 001°27'816.3
2017-Apr-21 06:01N 52°58' E 001°34'815.7
2017-Apr-21 05:31N 52°52' E 001°43'815.5
2017-Apr-21 05:01N 52°48' E 001°54'714.8
2017-Apr-21 04:30N 52°42' E 002°02'815.3
2017-Apr-21 04:00N 52°35' E 002°06'4815.8
2017-Apr-21 00:57N 51°49' E 002°29'916.4
2017-Apr-21 00:23N 51°43' E 002°40'617.0
2017-Apr-21 00:00N 51°37' E 002°43'817.0
2017-Apr-20 23:31N 51°28' E 002°42'4 8.6
2017-Apr-20 23:00N 51°25' E 002°46'612.3
2017-Apr-20 22:30N 51°25' E 002°56'713.0
2017-Apr-20 22:00N 51°24' E 003°07'510.4
2017-Apr-20 21:30N 51°20' E 003°13'0 0.7
2017-Apr-20 21:00N 51°20' E 003°13'1 1.7
2017-Apr-20 20:31N 51°19' E 003°13'1 0.9
2017-Apr-20 19:58N 51°19' E 003°13'0 0.0
2017-Apr-20 19:28N 51°19' E 003°13'0 0.0
2017-Apr-20 18:58N 51°19' E 003°13'0 0.0
2017-Apr-20 18:28N 51°19' E 003°13'0 0.0
2017-Apr-20 17:58N 51°19' E 003°13'0 0.0
2017-Apr-20 17:28N 51°19' E 003°13'0 0.0
2017-Apr-20 16:58N 51°19' E 003°13'0 0.0
2017-Apr-20 16:28N 51°19' E 003°13'0 0.0
2017-Apr-20 15:58N 51°19' E 003°13'0 0.0
2017-Apr-20 15:28N 51°19' E 003°13'0 0.0
2017-Apr-20 14:58N 51°19' E 003°13'  

Dump ship's entire track history